Time;durP1;ratioP1;P1;durP2;ratioP2;P2;SDS_P1;SDS_P2;PMS_P1;PMS_P2;Temp;Humidity;BMP_temperature;BMP_pressure;BME280_temperature;BME280_humidity;BME280_pressure;Samples;Min_cycle;Max_cycle;Signal;HPM_P1;HPM_P2
2022/03/28 00:00:38;;;;;;;17.60;15.85;;;;;;;19.84;47.36;102238.00;5030353;28;20476;-75
2022/03/28 00:03:06;;;;;;;17.60;15.82;;;;;;;19.83;47.38;102232.72;5031064;28;20489;-74
2022/03/28 00:05:34;;;;;;;18.35;16.25;;;;;;;19.83;47.11;102235.41;5030488;28;20045;-74
2022/03/28 00:08:02;;;;;;;17.92;16.13;;;;;;;19.82;46.95;102226.50;5030310;28;20045;-74
2022/03/28 00:10:30;;;;;;;18.30;16.50;;;;;;;19.82;46.85;102229.19;5030567;28;20041;-74
2022/03/28 00:12:57;;;;;;;18.30;16.38;;;;;;;19.81;46.41;102227.47;5012525;28;20408;-74
2022/03/28 00:15:24;;;;;;;18.75;16.77;;;;;;;19.81;46.49;102223.91;5030296;28;20420;-74
2022/03/28 00:17:51;;;;;;;19.27;17.35;;;;;;;19.81;46.55;102229.28;5030338;28;20489;-74
2022/03/28 00:20:19;;;;;;;16.77;15.13;;;;;;;19.81;46.40;102231.97;5030338;28;20041;-75
2022/03/28 00:22:46;;;;;;;17.17;15.57;;;;;;;19.80;46.16;102227.56;5030134;28;20042;-74
2022/03/28 00:25:14;;;;;;;19.05;16.75;;;;;;;19.80;46.25;102228.41;5030195;28;20045;-75
2022/03/28 00:27:41;;;;;;;18.55;16.63;;;;;;;19.80;45.83;102222.19;5030255;28;20417;-75
2022/03/28 00:30:09;;;;;;;17.33;15.60;;;;;;;19.79;45.57;102218.63;5030212;28;20056;-75
2022/03/28 00:32:37;;;;;;;17.17;15.32;;;;;;;19.79;45.48;102218.63;5030853;28;20053;-74
2022/03/28 00:35:05;;;;;;;17.10;15.45;;;;;;;19.78;45.27;102208.84;5030111;28;20511;-75
2022/03/28 00:37:32;;;;;;;18.27;16.45;;;;;;;19.79;45.24;102215.09;5029902;28;20076;-74
2022/03/28 00:39:59;;;;;;;17.75;15.73;;;;;;;19.78;45.55;102210.69;5012721;28;20045;-74
2022/03/28 00:42:29;;;;;;;18.67;16.60;;;;;;;19.78;45.28;102208.00;5030759;28;20389;-74
2022/03/28 00:44:57;;;;;;;18.00;16.15;;;;;;;19.78;45.09;102206.16;4997914;28;20053;-74
2022/03/28 00:47:24;;;;;;;16.90;15.20;;;;;;;19.76;45.30;102198.19;5012426;28;20046;-74
2022/03/28 00:49:51;;;;;;;18.00;16.20;;;;;;;19.77;45.15;102204.44;5029956;28;20401;-74
2022/03/28 00:52:19;;;;;;;18.08;16.17;;;;;;;19.77;45.30;102199.06;5029913;28;20485;-74
2022/03/28 00:54:46;;;;;;;17.60;15.80;;;;;;;19.76;44.67;102198.19;5030192;28;20052;-74
2022/03/28 00:57:14;;;;;;;19.25;15.68;;;;;;;19.76;45.04;102191.97;5029751;28;20404;-74
2022/03/28 00:59:41;;;;;;;17.30;15.52;;;;;;;19.76;44.95;102186.59;5032823;28;20049;-74
2022/03/28 01:02:08;;;;;;;18.25;16.42;;;;;;;19.75;44.75;102187.56;5033248;28;20057;-74
2022/03/28 01:04:37;;;;;;;16.80;15.23;;;;;;;19.75;44.58;102184.88;5033524;28;20045;-74
2022/03/28 01:07:06;;;;;;;17.40;15.70;;;;;;;19.74;44.54;102185.84;5015994;28;20060;-73
2022/03/28 01:09:34;;;;;;;17.10;15.30;;;;;;;19.75;44.44;102182.19;5033109;28;20046;-74
2022/03/28 01:12:02;;;;;;;16.90;15.02;;;;;;;19.74;44.62;102186.69;5033624;28;20392;-74
2022/03/28 01:14:30;;;;;;;16.77;15.20;;;;;;;19.75;44.55;102176.81;5033878;28;20408;-75
2022/03/28 01:19:43;;;;;;;17.17;15.57;;;;;;;19.73;44.33;102168.84;5017108;28;20053;-75
2022/03/28 01:22:10;;;;;;;16.92;15.18;;;;;;;19.73;44.33;102179.59;5032869;28;20049;-74
2022/03/28 01:24:40;;;;;;;15.57;13.98;;;;;;;19.73;44.23;102174.22;5033585;28;20369;-75
2022/03/28 01:27:08;;;;;;;15.93;14.32;;;;;;;19.73;44.45;102174.22;5033007;28;20049;-75
2022/03/28 01:29:35;;;;;;;16.88;15.27;;;;;;;19.74;44.03;102178.63;5033299;28;20041;-75
2022/03/28 01:32:03;;;;;;;16.58;14.98;;;;;;;19.72;44.41;102172.50;5015589;28;20507;-75
2022/03/28 01:34:31;;;;;;;16.85;15.05;;;;;;;19.73;43.88;102176.06;5033363;28;20484;-74
2022/03/28 01:36:58;;;;;;;16.48;14.75;;;;;;;19.73;43.86;102173.38;5032709;28;20071;-74
2022/03/28 01:39:26;;;;;;;16.40;14.82;;;;;;;19.72;43.74;102175.16;5015808;28;20045;-75
2022/03/28 01:41:53;;;;;;;17.25;14.30;;;;;;;19.72;43.48;102166.25;5032645;28;20049;-75
2022/03/28 01:44:21;;;;;;;16.33;14.65;;;;;;;19.72;43.40;102167.13;5033386;28;20049;-75
2022/03/28 01:46:48;;;;;;;16.58;14.88;;;;;;;19.72;43.25;102163.56;5033091;28;20049;-75
2022/03/28 01:49:19;;;;;;;16.83;15.13;;;;;;;19.71;43.17;102167.22;5014507;28;20045;-74
2022/03/28 01:51:48;;;;;;;15.02;13.48;;;;;;;19.71;43.34;102168.09;5032389;28;20057;-74
2022/03/28 01:54:16;;;;;;;16.52;14.93;;;;;;;19.70;43.02;102161.00;5015380;28;20049;-74
2022/03/28 01:56:44;;;;;;;16.60;14.57;;;;;;;19.70;42.94;102152.94;5033157;28;20045;-74
2022/03/28 01:59:11;;;;;;;15.07;13.50;;;;;;;19.70;42.99;102149.38;5032400;28;20401;-74
2022/03/28 02:01:39;;;;;;;15.90;14.38;;;;;;;19.69;43.05;102156.59;5032175;28;20045;-74
2022/03/28 02:04:07;;;;;;;14.68;13.20;;;;;;;19.69;43.12;102151.22;5032709;28;20045;-74
2022/03/28 02:06:35;;;;;;;15.18;13.57;;;;;;;19.70;42.63;102149.38;5032725;28;20480;-75
2022/03/28 02:09:03;;;;;;;15.75;14.15;;;;;;;19.69;42.81;102147.69;5031915;28;20045;-75
2022/03/28 02:11:30;;;;;;;16.33;14.73;;;;;;;19.69;42.67;102145.84;5031355;28;20057;-74
2022/03/28 02:13:58;;;;;;;15.60;14.10;;;;;;;19.70;42.21;102144.88;5032528;28;20033;-75
2022/03/28 02:16:26;;;;;;;14.52;13.05;;;;;;;19.69;42.58;102140.47;5032516;28;20056;-75
2022/03/28 02:18:53;;;;;;;16.45;14.07;;;;;;;19.68;42.42;102143.25;5031943;28;20046;-75
2022/03/28 02:21:20;;;;;;;15.38;13.80;;;;;;;19.69;42.41;102143.16;5032443;28;20056;-75
2022/03/28 02:23:48;;;;;;;15.70;14.05;;;;;;;19.68;42.03;102140.56;5032134;28;20049;-74
2022/03/28 02:26:15;;;;;;;15.65;14.05;;;;;;;19.67;42.16;102134.31;5032317;28;20057;-75
2022/03/28 02:28:42;;;;;;;15.77;14.18;;;;;;;19.68;41.86;102136.03;5032194;28;20038;-75
2022/03/28 02:31:12;;;;;;;19.23;14.88;;;;;;;19.68;41.94;102135.19;5015278;28;20492;-75
2022/03/28 02:33:40;;;;;;;15.30;13.80;;;;;;;19.67;41.85;102134.31;5032344;28;20053;-75
2022/03/28 02:36:07;;;;;;;14.43;13.02;;;;;;;19.67;41.78;102134.31;5032553;28;20389;-75
2022/03/28 02:38:34;;;;;;;14.23;12.82;;;;;;;19.67;41.85;102134.31;5014138;28;20049;-74
2022/03/28 02:41:02;;;;;;;15.80;14.20;;;;;;;19.67;41.36;102128.09;5032246;28;20045;-74
2022/03/28 02:43:30;;;;;;;14.52;13.23;;;;;;;19.67;41.68;102128.94;5032089;28;20045;-74
2022/03/28 02:46:03;;;;;;;15.75;14.13;;;;;;;19.67;41.48;102134.31;5031690;28;20507;-74
2022/03/28 02:48:30;;;;;;;14.40;12.98;;;;;;;19.67;41.22;102123.56;5031830;28;20396;-74
2022/03/28 02:50:58;;;;;;;14.77;13.30;;;;;;;19.67;41.43;102122.72;5032377;28;20045;-74
2022/03/28 02:53:25;;;;;;;14.88;13.35;;;;;;;19.67;41.32;102122.72;5031815;28;20050;-75
2022/03/28 02:55:53;;;;;;;16.17;14.50;;;;;;;19.66;41.20;102119.19;5031605;28;20049;-74
2022/03/28 02:58:20;;;;;;;14.48;12.98;;;;;;;19.67;41.01;102123.56;5031385;28;20041;-74
2022/03/28 03:00:48;;;;;;;13.88;12.50;;;;;;;19.67;41.20;102123.56;5031526;28;20057;-75
2022/03/28 03:03:15;;;;;;;14.85;13.25;;;;;;;19.67;41.20;102123.56;5031843;28;20058;-74
2022/03/28 03:05:43;;;;;;;15.13;13.63;;;;;;;19.66;41.06;102127.25;5014976;28;20048;-74
2022/03/28 03:08:10;;;;;;;14.75;13.35;;;;;;;19.67;40.78;102128.09;5031757;28;20052;-74
2022/03/28 03:10:37;;;;;;;14.20;12.93;;;;;;;19.66;40.87;102123.69;5031351;28;20045;-75
2022/03/28 03:13:05;;;;;;;13.95;12.50;;;;;;;19.67;40.93;102128.09;5031546;28;20400;-74
2022/03/28 03:15:33;;;;;;;14.13;12.73;;;;;;;19.66;40.87;102126.38;5031277;28;20042;-74
2022/03/28 03:18:00;;;;;;;13.93;12.52;;;;;;;19.65;40.80;102127.34;5031022;28;20049;-74
2022/03/28 03:20:28;;;;;;;15.25;13.52;;;;;;;19.66;40.98;102126.38;5013292;28;20056;-74
2022/03/28 03:22:55;;;;;;;14.85;13.45;;;;;;;19.64;40.70;102123.78;5031431;28;20057;-75
2022/03/28 03:25:23;;;;;;;13.88;12.52;;;;;;;19.66;40.80;102121.00;5031079;28;20057;-74
2022/03/28 03:27:51;;;;;;;16.00;14.43;;;;;;;19.64;40.58;102118.41;5046202;28;20046;-74
2022/03/28 03:30:20;;;;;;;14.68;12.93;;;;;;;19.65;40.61;102121.97;5031607;28;20056;-74
2022/03/28 03:32:48;;;;;;;13.85;12.50;;;;;;;19.64;40.35;102121.09;5030945;28;20052;-74
2022/03/28 03:35:15;;;;;;;15.20;13.60;;;;;;;19.63;40.38;102116.69;5030956;28;20382;-74
2022/03/28 03:37:42;;;;;;;14.63;13.13;;;;;;;19.64;40.40;102121.09;5013438;28;20059;-74
2022/03/28 03:40:12;;;;;;;14.75;12.90;;;;;;;19.63;40.33;102119.38;5030876;28;20046;-74
2022/03/28 03:42:40;;;;;;;14.80;13.38;;;;;;;19.63;40.29;102116.69;5031527;28;20061;-74
2022/03/28 03:45:08;;;;;;;14.30;12.90;;;;;;;19.64;40.29;102112.16;5031047;28;20050;-74
2022/03/28 03:47:36;;;;;;;14.02;12.63;;;;;;;19.63;40.28;102110.47;5030636;28;20404;-75
2022/03/28 03:50:05;;;;;;;13.52;12.23;;;;;;;19.64;40.19;102112.16;5030613;28;20151;-74
2022/03/28 03:52:32;;;;;;;13.57;12.32;;;;;;;19.63;40.25;102111.31;5031179;28;20056;-74
2022/03/28 03:55:00;;;;;;;14.68;13.13;;;;;;;19.64;39.98;102109.50;5013657;28;20056;-74
2022/03/28 03:57:28;;;;;;;14.05;12.43;;;;;;;19.64;39.99;102109.50;5030612;28;20115;-74
2022/03/28 03:59:56;;;;;;;14.73;13.20;;;;;;;19.62;40.17;102114.97;5012512;28;20072;-74
2022/03/28 04:02:38;;;;;;;13.40;12.13;;;;;;;19.63;40.16;102111.31;5031256;28;20050;-74
2022/03/28 04:05:06;;;;;;;13.75;12.45;;;;;;;19.63;39.95;102116.69;5030497;28;20049;-74
2022/03/28 04:07:33;;;;;;;14.18;12.82;;;;;;;19.63;39.90;102113.16;5030427;28;20046;-74
2022/03/28 04:10:02;;;;;;;14.30;12.85;;;;;;;19.63;39.94;102113.16;5030883;28;20046;-74
2022/03/28 04:12:30;;;;;;;14.23;12.75;;;;;;;19.62;39.79;102108.75;5030395;28;20048;-74
2022/03/28 04:14:59;;;;;;;14.70;12.73;;;;;;;19.62;39.87;102114.97;5030267;28;20072;-74
2022/03/28 04:17:28;;;;;;;12.43;11.23;;;;;;;19.63;39.69;102110.47;5030262;28;20072;-74
2022/03/28 04:19:57;;;;;;;14.18;12.77;;;;;;;19.62;39.67;102106.06;5012690;28;20049;-74
2022/03/28 04:22:24;;;;;;;13.18;11.88;;;;;;;19.61;39.83;102109.69;5030325;28;20048;-75
2022/03/28 04:24:52;;;;;;;14.95;13.35;;;;;;;19.61;39.76;102115.94;5012331;28;20053;-75
2022/03/28 04:27:20;;;;;;;14.60;13.18;;;;;;;19.60;39.66;102114.16;5030111;28;20041;-74
2022/03/28 04:29:47;;;;;;;13.68;12.27;;;;;;;19.61;39.47;102117.75;5030189;28;20050;-75
2022/03/28 04:32:14;;;;;;;14.25;12.82;;;;;;;19.60;39.47;102114.16;5012051;28;20065;-75
2022/03/28 04:34:42;;;;;;;14.45;12.15;;;;;;;19.60;39.38;102111.47;5030442;28;20396;-75
2022/03/28 04:37:09;;;;;;;13.93;12.32;;;;;;;19.60;39.36;102118.69;5013184;28;20045;-74
2022/03/28 04:39:37;;;;;;;13.90;12.60;;;;;;;19.59;39.55;102117.81;5030124;28;20050;-75
2022/03/28 04:42:04;;;;;;;13.90;12.50;;;;;;;19.60;39.26;102116.00;5030284;28;20049;-75
2022/03/28 04:44:32;;;;;;;14.00;12.48;;;;;;;19.60;39.15;102121.38;5030350;28;20046;-75
2022/03/28 04:46:59;;;;;;;14.48;12.18;;;;;;;19.60;39.46;102124.06;5030000;28;20072;-75
2022/03/28 04:49:26;;;;;;;13.10;11.80;;;;;;;19.60;39.04;102121.38;5030715;28;20046;-75
2022/03/28 04:51:54;;;;;;;12.77;11.57;;;;;;;19.59;39.31;102117.81;5030390;28;20041;-75
2022/03/28 04:54:21;;;;;;;14.20;12.70;;;;;;;19.59;39.30;102115.13;5030561;28;20495;-75
2022/03/28 04:56:49;;;;;;;13.73;12.43;;;;;;;19.60;39.18;102122.22;5030506;28;20481;-75
2022/03/28 04:59:16;;;;;;;14.00;12.38;;;;;;;19.59;38.94;102119.66;5029855;28;20400;-75
2022/03/28 05:01:43;;;;;;;14.35;12.77;;;;;;;19.59;39.04;102125.88;5029581;28;20057;-75
2022/03/28 05:04:11;;;;;;;15.50;13.95;;;;;;;19.59;39.09;102125.88;5013178;28;20052;-75
2022/03/28 05:06:38;;;;;;;14.40;12.90;;;;;;;19.59;38.95;102123.19;5029843;28;20446;-74
2022/03/28 05:09:06;;;;;;;14.02;12.55;;;;;;;19.59;38.75;102112.44;5012039;28;20635;-75
2022/03/28 05:11:33;;;;;;;13.43;12.02;;;;;;;19.58;38.80;102113.41;5030364;28;20042;-75
2022/03/28 05:14:02;;;;;;;13.50;12.10;;;;;;;19.57;38.89;102122.44;5029907;28;20046;-75
2022/03/28 05:16:31;;;;;;;13.85;12.55;;;;;;;19.57;38.92;102114.41;5013170;28;20052;-74
2022/03/28 05:18:59;;;;;;;13.30;12.00;;;;;;;19.58;38.58;102113.41;5030106;28;20052;-75
2022/03/28 05:21:26;;;;;;;15.10;13.52;;;;;;;19.57;38.70;102119.78;5029954;28;20149;-75
2022/03/28 05:23:53;;;;;;;14.98;13.48;;;;;;;19.57;38.80;102116.19;5012565;28;20042;-75
2022/03/28 05:26:21;;;;;;;14.13;12.73;;;;;;;19.57;38.66;102125.13;5029570;28;20052;-75
2022/03/28 05:28:48;;;;;;;12.95;11.75;;;;;;;19.57;38.56;102118.88;5029399;28;20042;-75
2022/03/28 05:31:15;;;;;;;13.60;12.23;;;;;;;19.56;38.57;102115.34;5029957;28;20041;-74
2022/03/28 05:33:43;;;;;;;13.60;12.10;;;;;;;19.57;38.51;102113.50;5029357;28;20046;-74
2022/03/28 05:36:10;;;;;;;13.43;12.02;;;;;;;19.55;38.51;102116.31;5029951;28;20105;-74
2022/03/28 05:38:38;;;;;;;14.38;12.85;;;;;;;19.55;38.55;102116.31;5012489;28;20501;-74
2022/03/28 05:41:06;;;;;;;13.82;12.43;;;;;;;19.56;38.38;102118.03;5011005;28;20049;-74
2022/03/28 05:43:35;;;;;;;13.88;11.45;;;;;;;19.55;38.61;102116.31;5029206;28;20511;-74
2022/03/28 05:46:03;;;;;;;14.18;12.93;;;;;;;19.55;38.50;102119.00;5032699;28;20052;-74
2022/03/28 05:48:31;;;;;;;13.85;12.40;;;;;;;19.55;38.45;102121.69;5014648;28;20053;-75
2022/03/28 05:50:59;;;;;;;14.23;11.95;;;;;;;19.55;38.19;102120.81;5014525;28;20045;-74
2022/03/28 05:53:26;;;;;;;14.55;13.05;;;;;;;19.55;38.37;102113.63;5032906;28;20052;-75
2022/03/28 05:55:53;;;;;;;13.80;12.40;;;;;;;19.54;38.29;102111.91;5032498;28;20480;-75
2022/03/28 05:58:21;;;;;;;14.02;12.57;;;;;;;19.55;38.24;102123.50;5014619;28;20050;-75
2022/03/28 06:00:48;;;;;;;14.57;13.07;;;;;;;19.55;38.14;102116.31;5032158;28;20038;-75
2022/03/28 06:03:15;;;;;;;13.82;12.43;;;;;;;19.55;38.26;102119.00;5032557;28;20060;-75
2022/03/28 06:06:08;;;;;;;13.77;12.43;;;;;;;19.54;38.20;102119.97;5033139;28;20049;-75
2022/03/28 06:08:36;;;;;;;13.73;12.15;;;;;;;19.54;38.34;102117.28;5015486;28;20046;-75
2022/03/28 06:11:03;;;;;;;13.88;12.57;;;;;;;19.55;38.10;102115.44;5032344;28;20040;-75
2022/03/28 06:13:31;;;;;;;13.45;12.15;;;;;;;19.55;38.15;102112.75;5032243;28;20045;-75
2022/03/28 06:16:00;;;;;;;13.40;12.07;;;;;;;19.55;37.93;102113.63;5032167;28;20050;-75
2022/03/28 06:18:27;;;;;;;14.63;13.18;;;;;;;19.54;38.17;102111.91;5032340;28;20056;-76
2022/03/28 06:20:54;;;;;;;15.23;13.10;;;;;;;19.54;37.69;102119.97;5015274;28;20038;-76
2022/03/28 06:23:22;;;;;;;14.07;12.60;;;;;;;19.54;37.73;102116.41;5032276;28;20400;-75
2022/03/28 06:25:49;;;;;;;14.75;13.25;;;;;;;19.55;37.86;102116.31;5032411;28;20045;-76
2022/03/28 06:28:17;;;;;;;14.73;12.82;;;;;;;19.54;37.82;102109.22;5014444;28;20049;-76
2022/03/28 06:30:44;;;;;;;13.57;12.18;;;;;;;19.55;37.76;102115.44;5032806;28;20041;-76
2022/03/28 06:33:12;;;;;;;14.50;13.10;;;;;;;19.54;37.65;102117.28;5032567;28;20045;-75
2022/03/28 06:35:40;;;;;;;14.30;12.90;;;;;;;19.56;37.96;102117.16;5014815;28;20049;-75
2022/03/28 06:38:08;;;;;;;15.15;13.75;;;;;;;19.56;37.71;102118.03;5032108;28;20049;-75
2022/03/28 06:40:36;;;;;;;15.50;13.35;;;;;;;19.56;37.77;102114.47;5014347;28;20048;-75
2022/03/28 06:43:04;;;;;;;14.77;13.23;;;;;;;19.55;37.66;102116.31;4998200;28;20076;-74
2022/03/28 06:45:32;;;;;;;14.65;13.15;;;;;;;19.56;37.37;102114.47;5031872;28;20400;-75
2022/03/28 06:47:59;;;;;;;17.25;13.23;;;;;;;19.56;38.20;102118.03;5014019;28;20057;-74
2022/03/28 06:50:46;;;;;;;14.98;13.48;;;;;;;19.57;37.91;102117.09;5031825;28;20042;-76
2022/03/28 06:53:15;;;;;;;16.75;13.20;;;;;;;19.58;38.26;102117.94;5031645;28;20049;-75
2022/03/28 06:55:42;;;;;;;17.20;13.75;;;;;;;19.58;38.24;102118.78;5031586;28;20499;-77
2022/03/28 06:58:09;;;;;;;17.10;13.65;;;;;;;19.60;38.07;102121.38;5031208;28;20046;-74
2022/03/28 07:00:37;;;;;;;15.52;13.55;;;;;;;19.60;38.15;102127.59;5102938;27;20041;-73
2022/03/28 07:03:07;;;;;;;14.88;13.25;;;;;;;19.62;37.74;102125.72;5031809;28;20053;-73
2022/03/28 07:05:35;;;;;;;17.80;13.75;;;;;;;19.64;38.37;102126.47;5031700;28;20050;-75
2022/03/28 07:08:03;;;;;;;18.65;13.85;;;;;;;19.65;37.86;102128.22;5031881;28;20050;-75
2022/03/28 07:10:30;;;;;;;16.90;14.75;;;;;;;19.66;37.14;102124.56;5031707;28;20045;-74
2022/03/28 07:13:02;;;;;;;20.27;16.00;;;;;;;19.67;37.31;102122.72;5024284;27;20053;-73
2022/03/28 07:15:30;;;;;;;16.10;14.50;;;;;;;19.69;37.93;102121.66;5116354;27;20047;-74
2022/03/28 07:18:02;;;;;;;15.05;12.50;;;;;;;19.72;37.59;102125.94;5135156;27;20047;-72
2022/03/28 07:20:31;;;;;;;16.50;13.90;;;;;;;19.72;38.17;102123.25;5135553;27;20031;-74
2022/03/28 07:22:59;;;;;;;17.30;14.70;;;;;;;19.75;37.05;102129.28;5117971;27;20062;-75
2022/03/28 07:25:28;;;;;;;21.40;16.70;;;;;;;19.75;36.11;102126.59;5117098;27;20471;-75
2022/03/28 07:27:56;;;;;;;18.48;16.55;;;;;;;19.76;35.92;102120.25;5134896;27;20050;-74
2022/03/28 07:30:25;;;;;;;20.83;16.15;;;;;;;19.78;35.86;102124.69;5099347;27;20058;-74
2022/03/28 07:32:52;;;;;;;19.52;17.05;;;;;;;19.77;35.90;102123.84;5099335;27;20058;-73
2022/03/28 07:35:21;;;;;;;20.67;17.77;;;;;;;19.78;35.90;102113.94;5134883;27;20398;-75
2022/03/28 07:37:50;;;;;;;20.02;16.52;;;;;;;19.78;36.06;102116.63;5134698;27;20047;-73
2022/03/28 07:40:18;;;;;;;17.38;15.57;;;;;;;19.80;37.42;102122.75;5134995;27;20043;-74
2022/03/28 07:42:46;;;;;;;18.30;15.70;;;;;;;19.81;36.61;102121.78;5135315;27;20043;-75
2022/03/28 07:45:14;;;;;;;19.48;15.88;;;;;;;19.84;37.50;102118.91;5099090;27;20043;-72
2022/03/28 07:47:42;;;;;;;15.75;13.73;;;;;;;19.84;37.43;102110.84;5134964;27;20508;-75
2022/03/28 07:50:10;;;;;;;18.98;14.93;;;;;;;19.86;37.84;102111.59;5135142;27;20054;-71
2022/03/28 07:52:39;;;;;;;18.33;13.45;;;;;;;19.87;37.43;102108.81;5134980;27;20046;-72
2022/03/28 07:55:08;;;;;;;15.95;13.65;;;;;;;19.88;37.12;102113.19;5135445;27;20043;-72
2022/03/28 07:57:36;;;;;;;18.75;13.38;;;;;;;19.88;37.05;102113.19;5117353;27;20046;-72
2022/03/28 08:00:06;;;;;;;17.42;14.60;;;;;;;19.89;36.93;102111.38;5135980;27;20055;-73
2022/03/28 08:02:52;;;;;;;15.80;14.10;;;;;;;19.91;36.89;102112.16;5135094;27;20517;-72
2022/03/28 08:05:20;;;;;;;19.20;13.77;;;;;;;19.91;37.03;102107.63;5099092;27;20058;-73
2022/03/28 08:07:50;;;;;;;16.88;13.63;;;;;;;19.92;37.03;102111.16;5134400;27;20047;-73
2022/03/28 08:10:18;;;;;;;16.25;13.43;;;;;;;19.93;37.33;102110.19;5134951;27;20035;-72
2022/03/28 08:12:47;;;;;;;14.68;12.82;;;;;;;19.94;37.36;102109.25;5134796;27;20043;-73
2022/03/28 08:15:15;;;;;;;16.20;14.50;;;;;;;19.95;36.80;102113.66;5134404;27;20051;-72
2022/03/28 08:17:43;;;;;;;17.45;14.93;;;;;;;19.95;36.81;102114.50;5134750;27;20050;-71
2022/03/28 08:20:12;;;;;;;15.88;13.15;;;;;;;19.96;36.88;102112.69;5116445;27;20043;-74
2022/03/28 08:22:44;;;;;;;20.02;14.07;;;;;;;19.96;36.85;102110.00;5134515;27;20039;-72
2022/03/28 08:25:13;;;;;;;15.43;13.07;;;;;;;19.96;37.15;102110.84;5115946;27;20051;-73
2022/03/28 08:27:41;;;;;;;16.77;14.27;;;;;;;19.98;37.42;102108.94;5135113;27;20043;-73
2022/03/28 08:30:10;;;;;;;17.52;13.50;;;;;;;20.00;37.85;102108.81;5134886;27;20063;-77
2022/03/28 08:32:40;;;;;;;15.32;13.73;;;;;;;20.00;37.23;102101.59;5134123;28;20058;-72
2022/03/28 08:35:09;;;;;;;15.43;13.63;;;;;;;20.01;37.19;102110.53;5135042;28;20051;-72
2022/03/28 08:37:37;;;;;;;17.00;13.75;;;;;;;20.02;37.40;102109.59;5134477;28;20043;-71
2022/03/28 08:40:12;;;;;;;15.48;13.23;;;;;;;20.02;37.04;102106.91;5117549;28;20054;-72
2022/03/28 08:42:40;;;;;;;17.05;14.48;;;;;;;20.02;37.05;102114.09;5134267;28;20051;-72
2022/03/28 08:45:11;;;;;;;15.27;12.73;;;;;;;20.02;37.08;102101.53;5115362;28;20241;-72
2022/03/28 08:47:42;;;;;;;14.82;13.10;;;;;;;20.04;36.99;102099.56;5134904;28;20054;-74
2022/03/28 08:50:30;;;;;;;15.63;13.00;;;;;;;20.04;37.13;102104.94;5134002;28;20047;-73
2022/03/28 08:52:57;;;;;;;17.05;13.75;;;;;;;20.05;37.19;102100.44;5134361;28;20047;-72
2022/03/28 08:55:25;;;;;;;15.80;13.45;;;;;;;20.05;37.23;102092.38;5134037;28;20047;-71
2022/03/28 08:57:52;;;;;;;16.70;14.35;;;;;;;20.06;37.11;102091.44;5133713;28;20478;-72
2022/03/28 09:00:20;;;;;;;15.45;13.68;;;;;;;20.05;37.14;102093.22;5133950;28;20054;-71
2022/03/28 09:02:49;;;;;;;18.02;14.52;;;;;;;20.06;37.06;102094.97;5098081;28;20054;-72
2022/03/28 09:05:28;;;;;;;19.40;13.90;;;;;;;20.07;37.07;102090.44;5133931;28;20043;-73
2022/03/28 09:07:57;;;;;;;15.05;13.50;;;;;;;20.07;36.82;102091.31;5133995;28;20039;-72
2022/03/28 09:10:28;;;;;;;17.55;13.45;;;;;;;20.07;36.98;102088.63;5115136;28;20057;-73
2022/03/28 09:13:09;;;;;;;17.75;14.80;;;;;;;20.08;36.89;102081.41;5133888;28;20043;-72
2022/03/28 09:15:57;;;;;;;19.30;14.30;;;;;;;20.07;36.66;102083.25;5134237;28;20058;-74
2022/03/28 09:18:34;;;;;;;16.90;12.90;;;;;;;20.08;36.95;102084.97;5115545;27;20402;-71
2022/03/28 09:21:07;;;;;;;17.10;14.32;;;;;;;20.08;36.79;102090.34;5118649;27;20485;-72
2022/03/28 09:23:42;;;;;;;16.67;14.40;;;;;;;20.09;37.01;102080.44;5137924;27;20375;-73
2022/03/28 09:26:16;;;;;;;16.25;14.35;;;;;;;20.09;36.89;102081.28;5137593;27;20043;-72
2022/03/28 09:29:00;;;;;;;16.67;14.82;;;;;;;20.09;36.94;102077.75;5118849;27;20054;-71
2022/03/28 09:31:27;;;;;;;18.52;15.00;;;;;;;20.10;37.02;102085.72;5152729;27;20050;-72
2022/03/28 09:34:13;;;;;;;17.23;15.10;;;;;;;20.10;37.08;102071.44;5137186;27;20402;-72
2022/03/28 09:36:48;;;;;;;18.02;15.70;;;;;;;20.11;36.88;102074.00;5118923;27;20043;-73
2022/03/28 09:39:20;;;;;;;19.38;15.98;;;;;;;20.12;36.61;102081.09;5152399;27;20054;-72
2022/03/28 09:42:08;;;;;;;17.73;13.73;;;;;;;20.12;36.84;102074.84;5137683;27;20367;-72
2022/03/28 09:44:51;;;;;;;15.75;14.02;;;;;;;20.10;36.71;102080.34;5137189;27;20047;-72
2022/03/28 09:47:22;;;;;;;20.50;15.07;;;;;;;20.12;37.07;102075.72;5137450;27;20054;-72
2022/03/28 09:49:53;;;;;;;16.27;14.30;;;;;;;20.11;37.25;102079.38;5137129;27;20074;-72
2022/03/28 09:52:25;;;;;;;15.68;13.07;;;;;;;20.12;37.19;102075.72;5137012;27;20047;-73
2022/03/28 09:54:56;;;;;;;18.90;15.50;;;;;;;20.11;36.94;102071.31;5136934;27;20069;-72
2022/03/28 09:57:25;;;;;;;23.08;15.55;;;;;;;20.14;38.39;102072.94;5137350;27;20047;-72
2022/03/28 10:00:07;;;;;;;25.92;21.65;;;;;;;20.11;35.42;102068.63;5137023;27;20039;-74
2022/03/28 10:02:38;;;;;;;22.02;17.65;;;;;;;20.09;40.36;102065.16;5136791;27;20059;-73
2022/03/28 10:05:06;;;;;;;22.05;16.30;;;;;;;20.08;43.07;102062.59;5136720;27;20050;-72
2022/03/28 10:07:34;;;;;;;18.23;16.08;;;;;;;20.08;44.82;102063.44;5136822;27;20047;-72
2022/03/28 10:10:03;;;;;;;18.48;14.65;;;;;;;20.07;44.97;102055.50;5136497;27;20043;-72
2022/03/28 10:12:30;;;;;;;18.83;16.83;;;;;;;20.06;44.91;102053.78;5136436;27;20394;-72
2022/03/28 10:14:58;;;;;;;17.73;15.80;;;;;;;20.05;45.80;102047.53;5136850;27;20042;-73
2022/03/28 10:17:31;;;;;;;19.77;16.73;;;;;;;20.03;46.18;102038.72;5101109;27;20058;-72
2022/03/28 10:19:59;;;;;;;19.95;15.25;;;;;;;20.04;44.41;102035.06;5136605;27;20047;-72
2022/03/28 10:22:45;;;;;;;19.45;16.17;;;;;;;20.04;44.68;102035.06;5119880;27;20050;-72
2022/03/28 10:25:19;;;;;;;22.00;16.27;;;;;;;20.03;41.54;102027.13;5136835;27;20047;-73
2022/03/28 10:27:48;;;;;;;21.88;16.42;;;;;;;20.04;42.86;102024.31;5136475;27;20051;-73
2022/03/28 10:30:27;;;;;;;22.83;17.02;;;;;;;20.05;42.97;102019.78;5135953;27;20054;-71
2022/03/28 10:33:22;;;;;;;17.27;14.60;;;;;;;20.06;45.55;102017.00;5136220;27;20053;-71
2022/03/28 10:36:18;;;;;;;17.80;15.88;;;;;;;20.05;46.55;102004.50;5136312;27;20047;-72
2022/03/28 10:38:45;;;;;;;16.70;14.90;;;;;;;20.04;46.54;101997.44;5135849;27;20493;-72
2022/03/28 10:41:17;;;;;;;17.80;15.27;;;;;;;20.05;46.00;101998.28;5136177;27;20066;-72
2022/03/28 10:43:45;;;;;;;17.90;16.00;;;;;;;20.04;45.71;101992.06;5136306;27;20050;-74
2022/03/28 10:46:14;;;;;;;18.27;16.30;;;;;;;20.04;43.98;101994.75;5117630;27;20055;-72
2022/03/28 10:48:42;;;;;;;18.52;16.00;;;;;;;20.06;44.16;101986.59;5135771;27;20043;-72
2022/03/28 10:51:19;;;;;;;23.02;19.40;;;;;;;20.07;43.54;101981.09;5135947;27;20214;-73
2022/03/28 10:53:53;;;;;;;18.10;15.50;;;;;;;20.06;44.45;101971.31;5136067;27;20035;-72
2022/03/28 10:56:34;;;;;;;18.13;15.98;;;;;;;20.05;44.26;101966.03;5134807;27;20043;-72
2022/03/28 10:59:07;;;;;;;19.00;15.63;;;;;;;20.04;43.28;101965.16;5031713;28;20052;-72
2022/03/28 11:01:35;;;;;;;16.98;15.18;;;;;;;20.03;44.54;101958.09;5031577;28;20056;-73
2022/03/28 11:04:12;;;;;;;19.48;16.88;;;;;;;20.02;44.44;101953.69;5014004;28;20050;-72
2022/03/28 11:06:49;;;;;;;21.85;18.52;;;;;;;20.00;38.79;101944.84;5031333;28;20049;-73
2022/03/28 11:09:43;;;;;;;21.13;15.88;;;;;;;20.02;43.92;101951.00;5031883;28;20056;-74
2022/03/28 11:12:16;;;;;;;18.40;15.43;;;;;;;20.02;44.00;101945.63;5013989;28;20045;-72
2022/03/28 11:14:52;;;;;;;21.17;15.38;;;;;;;20.03;44.12;101946.47;5030874;28;20053;-73
2022/03/28 11:17:34;;;;;;;20.27;16.85;;;;;;;20.00;44.91;101940.34;5031808;28;20064;-73
2022/03/28 11:20:12;;;;;;;18.87;16.57;;;;;;;20.00;45.97;101931.41;5032495;28;20041;-73
2022/03/28 11:22:49;;;;;;;19.38;17.15;;;;;;;19.99;45.91;101929.69;5031067;28;20045;-74